createdAt,value
2023-03-26T00:00:57.661Z,8.93
2023-03-26T00:06:06.044Z,9.00
2023-03-26T00:11:10.217Z,9.08
2023-03-26T00:16:13.841Z,9.01
2023-03-26T00:21:18.991Z,9.13
2023-03-26T00:26:20.616Z,9.13
2023-03-26T00:31:22.289Z,9.09
2023-03-26T00:36:26.828Z,8.94
2023-03-26T00:41:31.080Z,8.82
2023-03-26T00:46:33.091Z,8.74
2023-03-26T00:51:35.093Z,8.67
2023-03-26T00:56:37.089Z,8.67
2023-03-26T01:01:39.849Z,8.74
2023-03-26T01:06:43.372Z,8.80
2023-03-26T01:11:45.796Z,8.84
2023-03-26T01:16:53.690Z,8.79
2023-03-26T01:21:56.046Z,8.82
2023-03-26T01:27:09.641Z,8.88
2023-03-26T01:32:17.374Z,8.78
2023-03-26T01:37:37.013Z,8.75
2023-03-26T01:42:52.115Z,8.73
2023-03-26T01:47:55.009Z,8.61
2023-03-26T01:52:57.012Z,8.59
2023-03-26T01:58:29.272Z,8.54
2023-03-26T02:03:35.179Z,8.36
2023-03-26T02:09:08.621Z,8.26
2023-03-26T02:14:10.962Z,8.28
2023-03-26T02:19:16.080Z,8.34
2023-03-26T02:24:19.793Z,8.40
2023-03-26T02:29:22.284Z,8.44
2023-03-26T02:34:24.832Z,8.43
2023-03-26T02:39:28.961Z,8.36
2023-03-26T02:44:34.809Z,8.27
2023-03-26T02:49:36.547Z,8.15
2023-03-26T02:54:38.343Z,8.08
2023-03-26T02:59:57.912Z,8.06
2023-03-26T03:05:31.438Z,8.05
2023-03-26T03:11:00.918Z,8.00
2023-03-26T03:16:13.484Z,7.88
2023-03-26T03:21:15.319Z,7.76
2023-03-26T03:26:21.831Z,7.66
2023-03-26T03:31:28.492Z,7.76
2023-03-26T03:36:38.653Z,7.81
2023-03-26T03:41:56.484Z,7.85
2023-03-26T03:46:58.147Z,7.80
2023-03-26T03:51:59.849Z,7.79
2023-03-26T03:57:08.042Z,7.71
2023-03-26T04:02:26.319Z,7.59
2023-03-26T04:07:33.269Z,7.59
2023-03-26T04:12:37.788Z,7.77
2023-03-26T04:17:42.738Z,7.77
2023-03-26T04:22:46.735Z,7.78
2023-03-26T04:27:50.728Z,7.87
2023-03-26T04:32:58.593Z,7.84
2023-03-26T04:38:07.339Z,7.79
2023-03-26T04:43:16.359Z,7.94
2023-03-26T04:48:38.718Z,8.05
2023-03-26T04:53:43.749Z,8.08
2023-03-26T04:59:03.674Z,7.99
2023-03-26T05:04:09.246Z,8.06
2023-03-26T05:09:11.425Z,8.09
2023-03-26T05:14:36.316Z,8.03
2023-03-26T05:19:41.332Z,7.97
2023-03-26T05:24:43.034Z,8.08
2023-03-26T05:29:44.793Z,8.08
2023-03-26T05:34:46.730Z,8.06
2023-03-26T05:39:52.037Z,8.08
2023-03-26T05:45:31.939Z,8.26
2023-03-26T05:50:37.590Z,8.31
2023-03-26T05:55:40.682Z,8.57
2023-03-26T06:01:20.829Z,8.67
2023-03-26T06:06:58.018Z,9.11
2023-03-26T06:12:00.158Z,9.13
2023-03-26T06:17:04.422Z,9.41
2023-03-26T06:22:23.977Z,9.18
2023-03-26T06:27:45.983Z,9.23
2023-03-26T06:33:19.574Z,9.20
2023-03-26T06:38:25.473Z,9.14
2023-03-26T06:43:27.234Z,9.17
2023-03-26T06:48:48.150Z,9.15
2023-03-26T06:54:25.361Z,9.23
2023-03-26T06:59:43.085Z,9.15
2023-03-26T07:05:03.713Z,9.20
2023-03-26T07:10:23.745Z,9.33
2023-03-26T07:15:43.927Z,9.33
2023-03-26T07:20:57.833Z,9.29
2023-03-26T07:26:54.062Z,9.39
2023-03-26T07:32:24.095Z,9.28
2023-03-26T07:38:01.207Z,9.48
2023-03-26T07:43:24.424Z,9.52
2023-03-26T07:48:49.313Z,9.45
2023-03-26T07:54:11.578Z,9.51
2023-03-26T07:59:44.693Z,9.56
2023-03-26T08:05:18.880Z,9.64
2023-03-26T08:10:45.117Z,9.64
2023-03-26T08:15:58.139Z,9.69
2023-03-26T08:21:11.168Z,9.79
2023-03-26T08:26:39.104Z,9.79
2023-03-26T08:31:44.171Z,10.07
2023-03-26T08:36:46.150Z,9.99
2023-03-26T08:42:19.898Z,10.02
2023-03-26T08:47:40.073Z,9.79
2023-03-26T08:52:59.154Z,10.00
2023-03-26T08:58:23.829Z,9.97
2023-03-26T09:03:50.630Z,10.55
2023-03-26T09:09:05.488Z,10.18
2023-03-26T09:14:31.078Z,10.61
2023-03-26T09:20:14.459Z,10.53
2023-03-26T09:25:41.587Z,10.63
2023-03-26T09:30:53.429Z,10.90
2023-03-26T09:36:09.622Z,11.18
2023-03-26T09:41:17.174Z,13.10
2023-03-26T09:46:31.144Z,15.16
2023-03-26T09:51:33.271Z,15.80
2023-03-26T09:57:16.470Z,13.29
2023-03-26T10:02:46.745Z,12.17
2023-03-26T10:08:20.461Z,11.68
2023-03-26T10:13:26.216Z,12.86
2023-03-26T10:18:52.815Z,12.82
2023-03-26T10:24:22.509Z,12.13
2023-03-26T10:29:57.195Z,11.51
2023-03-26T10:35:28.797Z,12.33
2023-03-26T10:40:42.852Z,12.99
2023-03-26T10:45:44.473Z,14.28
2023-03-26T10:50:59.968Z,14.28
2023-03-26T10:56:31.341Z,15.58
2023-03-26T11:01:44.847Z,14.13
2023-03-26T11:06:58.156Z,14.23
2023-03-26T11:12:26.210Z,13.29
2023-03-26T11:17:40.582Z,16.62
2023-03-26T11:23:02.795Z,14.19
2023-03-26T11:28:23.792Z,13.50
2023-03-26T11:33:37.895Z,12.79
2023-03-26T11:38:50.588Z,12.86
2023-03-26T11:44:05.398Z,13.49
2023-03-26T11:49:12.572Z,15.70
2023-03-26T11:54:15.184Z,16.65
2023-03-26T11:59:27.340Z,16.53
2023-03-26T12:04:36.704Z,13.76
2023-03-26T12:09:51.038Z,13.19
2023-03-26T12:14:53.125Z,13.44
2023-03-26T12:19:54.706Z,12.90
2023-03-26T12:25:19.625Z,12.98
2023-03-26T12:30:22.841Z,12.71
2023-03-26T12:35:27.742Z,12.91
2023-03-26T12:40:34.320Z,13.20
2023-03-26T12:45:42.788Z,13.18
2023-03-26T12:51:08.195Z,12.89
2023-03-26T12:56:27.291Z,12.77
2023-03-26T13:01:51.897Z,13.06
2023-03-26T13:07:01.716Z,13.09
2023-03-26T13:12:32.000Z,13.19
2023-03-26T13:18:15.593Z,13.18
2023-03-26T13:23:26.778Z,13.28
2023-03-26T13:28:43.765Z,13.36
2023-03-26T13:33:57.616Z,13.05
2023-03-26T13:39:20.399Z,11.48
2023-03-26T13:44:40.590Z,11.00
2023-03-26T13:49:51.908Z,10.68
2023-03-26T13:55:20.380Z,10.40
2023-03-26T14:01:04.082Z,10.22
2023-03-26T14:06:12.945Z,10.36
2023-03-26T14:11:21.249Z,10.58
2023-03-26T14:16:29.735Z,10.08
2023-03-26T14:21:52.381Z,9.74
2023-03-26T14:27:03.373Z,9.71
2023-03-26T14:32:33.431Z,9.82
2023-03-26T14:38:00.732Z,9.72
2023-03-26T14:43:29.883Z,9.55
2023-03-26T14:48:37.302Z,9.31
2023-03-26T14:53:44.242Z,9.32
2023-03-26T14:59:07.867Z,9.20
2023-03-26T15:04:43.730Z,9.08
2023-03-26T15:10:14.674Z,8.82
2023-03-26T15:15:38.165Z,8.69
2023-03-26T15:20:48.540Z,8.51
2023-03-26T15:26:04.390Z,8.30
2023-03-26T15:31:16.727Z,8.18
2023-03-26T15:36:56.454Z,8.13
2023-03-26T15:42:21.985Z,8.09
2023-03-26T15:47:51.425Z,8.01
2023-03-26T15:53:06.727Z,7.99
2023-03-26T15:58:18.303Z,7.92
2023-03-26T16:03:34.313Z,7.82
2023-03-26T16:09:09.494Z,7.66
2023-03-26T16:14:24.605Z,7.62
2023-03-26T16:19:41.134Z,7.60
2023-03-26T16:24:47.732Z,7.62
2023-03-26T16:30:07.037Z,7.63
2023-03-26T16:35:28.599Z,7.71
2023-03-26T16:40:49.093Z,7.72
2023-03-26T16:46:02.501Z,7.88
2023-03-26T16:51:22.857Z,7.64
2023-03-26T16:56:44.771Z,7.62
2023-03-26T17:01:50.934Z,7.61
2023-03-26T17:07:14.300Z,7.75
2023-03-26T17:12:40.794Z,7.78
2023-03-26T17:18:03.930Z,7.80
2023-03-26T17:23:31.229Z,7.81
2023-03-26T17:28:53.282Z,7.91
2023-03-26T17:33:55.321Z,7.94
2023-03-26T17:39:01.037Z,8.00
2023-03-26T17:44:48.378Z,7.81
2023-03-26T17:49:54.803Z,7.83
2023-03-26T17:54:57.183Z,7.96
2023-03-26T18:00:00.954Z,7.71
2023-03-26T18:05:06.175Z,7.49
2023-03-26T18:10:33.174Z,7.53
2023-03-26T18:15:48.918Z,7.44
2023-03-26T18:20:52.199Z,7.68
2023-03-26T18:26:23.142Z,7.45
2023-03-26T18:31:26.884Z,7.43
2023-03-26T18:36:31.134Z,7.45
2023-03-26T18:41:41.559Z,7.24
2023-03-26T18:46:44.089Z,7.44
2023-03-26T18:51:56.071Z,7.51
2023-03-26T18:57:15.463Z,7.50
2023-03-26T19:02:19.673Z,7.14
2023-03-26T19:07:25.291Z,7.30
2023-03-26T19:12:33.189Z,7.24
2023-03-26T19:17:45.095Z,7.24
2023-03-26T19:22:48.041Z,7.28
2023-03-26T19:27:51.776Z,7.43
2023-03-26T19:32:54.061Z,7.43
2023-03-26T19:37:55.815Z,7.34
2023-03-26T19:42:58.149Z,7.31
2023-03-26T19:48:12.242Z,7.18
2023-03-26T19:53:24.176Z,7.35
2023-03-26T19:58:26.789Z,7.10
2023-03-26T20:03:40.331Z,7.25
2023-03-26T20:08:42.855Z,7.52
2023-03-26T20:13:44.511Z,7.32
2023-03-26T20:18:46.138Z,7.53
2023-03-26T20:23:48.003Z,7.53
2023-03-26T20:28:53.482Z,7.38
2023-03-26T20:33:56.481Z,7.56
2023-03-26T20:38:58.272Z,7.49
2023-03-26T20:43:59.947Z,7.43
2023-03-26T20:49:01.550Z,7.32
2023-03-26T20:54:03.157Z,7.39
2023-03-26T20:59:11.070Z,7.57
2023-03-26T21:04:14.330Z,7.54
2023-03-26T21:09:23.591Z,7.64
2023-03-26T21:14:39.083Z,7.58
2023-03-26T21:19:41.404Z,7.66
2023-03-26T21:24:45.750Z,7.50
2023-03-26T21:29:47.721Z,7.12
2023-03-26T21:34:58.589Z,7.07
2023-03-26T21:40:11.489Z,7.07
2023-03-26T21:45:13.580Z,7.14
2023-03-26T21:50:18.592Z,7.07
2023-03-26T21:55:23.440Z,7.19
2023-03-26T22:00:42.798Z,7.26
2023-03-26T22:06:02.205Z,7.44
2023-03-26T22:11:03.854Z,7.52
2023-03-26T22:16:07.647Z,7.42
2023-03-26T22:21:09.720Z,7.07
2023-03-26T22:26:11.546Z,6.90
2023-03-26T22:31:13.310Z,7.01
2023-03-26T22:36:22.497Z,7.22
2023-03-26T22:41:25.831Z,7.26
2023-03-26T22:46:27.775Z,6.73
2023-03-26T22:51:30.261Z,6.74
2023-03-26T22:56:32.034Z,6.91
2023-03-26T23:01:34.459Z,6.91
2023-03-26T23:06:36.094Z,6.94
2023-03-26T23:11:37.726Z,7.01
2023-03-26T23:16:39.439Z,6.88
2023-03-26T23:21:41.399Z,6.75
2023-03-26T23:26:50.573Z,6.72
2023-03-26T23:31:54.623Z,6.72
2023-03-26T23:36:58.049Z,6.67
2023-03-26T23:41:59.717Z,7.05
2023-03-26T23:47:01.341Z,7.02
2023-03-26T23:52:04.947Z,6.89
2023-03-26T23:57:06.576Z,6.83
